Hilal Bey — E5U2845 — position and weather

sailwx.info

Track history (hours):
 
Tides and Currents Weather Stations Pressure Air Temp Water Temp Dewpoint Dewpoint Depression Visibility Wind Speed Wind Dir Waves Ship Positions

Hilal Bey

Last reported at 2018-Jan-18 13:53 UTC. Time now 2018-Jan-21 14:45 UTC.
Position N 36°04' W 004°38'.

Length 118 m; draft 9.9 m.

Type: Cargo ship. MMSI: 518898000.

Date/timePositionNaut miles runAvg speedWind from/ knotsBaromVisibWave heightAir tempDewpointWater temp
2018-Jan-18 13:53N 36°04' W 004°38'3 8.1
2018-Jan-18 13:30N 36°04' W 004°42'4 7.4
2018-Jan-18 13:00N 36°03' W 004°47'4 7.0
2018-Jan-18 12:30N 36°03' W 004°51'3 6.9
2018-Jan-18 12:00N 36°02' W 004°55'4 7.6
2018-Jan-18 11:30N 36°02' W 004°60'4 8.3
2018-Jan-18 11:00N 36°01' W 005°05'5 9.6
2018-Jan-18 10:30N 35°60' W 005°11'5 9.8
2018-Jan-18 10:00N 35°59' W 005°17'15 9.8
2018-Jan-18 08:27N 35°55' W 005°35'4 9.2
2018-Jan-18 08:00N 35°55' W 005°40'  
Track history (hours):
 
Tides and Currents Weather Stations Pressure Air Temp Water Temp Dewpoint Dewpoint Depression Visibility Wind Speed Wind Dir Waves Ship Positions

Hilal Bey

Last reported at 2018-Jan-18 13:53 UTC. Time now 2018-Jan-21 14:45 UTC.
Position N 36°04' W 004°38'.

Length 118 m; draft 9.9 m.

Type: Cargo ship. MMSI: 518898000.

Date/timePositionNaut miles runAvg speedWind from/ knotsBaromVisibWave heightAir tempDewpointWater temp
2018-Jan-18 13:53N 36°04' W 004°38'3 8.1
2018-Jan-18 13:30N 36°04' W 004°42'4 7.4
2018-Jan-18 13:00N 36°03' W 004°47'4 7.0
2018-Jan-18 12:30N 36°03' W 004°51'3 6.9
2018-Jan-18 12:00N 36°02' W 004°55'4 7.6
2018-Jan-18 11:30N 36°02' W 004°60'4 8.3
2018-Jan-18 11:00N 36°01' W 005°05'5 9.6
2018-Jan-18 10:30N 35°60' W 005°11'5 9.8
2018-Jan-18 10:00N 35°59' W 005°17'15 9.8
2018-Jan-18 08:27N 35°55' W 005°35'4 9.2
2018-Jan-18 08:00N 35°55' W 005°40'  

Dump ship's entire track history